createdAt,value
2022-09-06T00:00:31.106Z,5.97
2022-09-06T00:02:59.644Z,5.10
2022-09-06T00:05:28.475Z,5.30
2022-09-06T00:07:59.278Z,3.80
2022-09-06T00:10:30.567Z,8.67
2022-09-06T00:13:03.217Z,6.47
2022-09-06T00:15:32.049Z,4.63
2022-09-06T00:18:01.364Z,6.87
2022-09-06T00:20:30.415Z,6.47
2022-09-06T00:22:59.719Z,4.50
2022-09-06T00:25:30.358Z,5.40
2022-09-06T00:27:59.913Z,6.10
2022-09-06T00:30:30.216Z,4.60
2022-09-06T00:32:59.021Z,8.00
2022-09-06T00:35:28.755Z,6.03
2022-09-06T00:38:01.756Z,5.00
2022-09-06T00:40:33.640Z,5.97
2022-09-06T00:43:02.080Z,4.97
2022-09-06T00:45:31.961Z,11.93
2022-09-06T00:48:02.168Z,5.47
2022-09-06T00:50:31.051Z,8.20
2022-09-06T00:52:59.579Z,7.77
2022-09-06T00:55:28.536Z,7.03
2022-09-06T00:57:58.704Z,7.00
2022-09-06T01:00:27.138Z,6.57
2022-09-06T01:02:55.715Z,9.63
2022-09-06T01:05:29.269Z,9.40
2022-09-06T01:08:07.371Z,6.73
2022-09-06T01:10:57.753Z,5.37
2022-09-06T01:13:38.564Z,5.17
2022-09-06T01:16:13.963Z,7.20
2022-09-06T01:19:10.170Z,5.47
2022-09-06T01:21:48.039Z,7.23
2022-09-06T01:24:55.509Z,7.43
2022-09-06T01:28:03.767Z,6.00
2022-09-06T01:30:35.727Z,7.27
2022-09-06T01:33:11.316Z,11.53
2022-09-06T01:35:43.543Z,6.23
2022-09-06T01:38:12.208Z,7.67
2022-09-06T01:40:40.673Z,8.20
2022-09-06T01:43:13.592Z,7.07
2022-09-06T01:45:52.151Z,5.57
2022-09-06T01:48:30.984Z,7.63
2022-09-06T01:51:09.600Z,6.37
2022-09-06T01:53:55.140Z,7.53
2022-09-06T01:56:35.704Z,6.90
2022-09-06T01:59:18.044Z,9.93
2022-09-06T02:01:57.343Z,4.67
2022-09-06T02:04:31.020Z,4.07
2022-09-06T02:07:03.084Z,5.57
2022-09-06T02:09:38.320Z,5.73
2022-09-06T02:12:08.433Z,3.97
2022-09-06T02:14:41.968Z,5.43
2022-09-06T02:17:16.486Z,6.63
2022-09-06T02:19:50.687Z,4.60
2022-09-06T02:22:24.236Z,5.13
2022-09-06T02:24:54.769Z,5.20
2022-09-06T02:27:23.284Z,7.17
2022-09-06T02:29:53.387Z,8.50
2022-09-06T02:32:23.880Z,6.43
2022-09-06T02:34:54.434Z,9.17
2022-09-06T02:37:26.056Z,6.13
2022-09-06T02:39:55.977Z,7.03
2022-09-06T02:42:25.767Z,7.77
2022-09-06T02:44:55.587Z,5.97
2022-09-06T02:47:24.040Z,8.07
2022-09-06T02:49:52.435Z,6.47
2022-09-06T02:52:20.824Z,9.67
2022-09-06T02:54:49.267Z,8.03
2022-09-06T02:57:17.695Z,13.03
2022-09-06T02:59:46.793Z,8.70
2022-09-06T03:02:16.897Z,9.80
2022-09-06T03:04:45.413Z,12.47
2022-09-06T03:07:13.803Z,6.67
2022-09-06T03:09:42.525Z,10.07
2022-09-06T03:12:10.942Z,10.03
2022-09-06T03:14:41.188Z,11.17
2022-09-06T03:17:09.635Z,9.83
2022-09-06T03:19:39.410Z,9.33
2022-09-06T03:22:07.896Z,9.53
2022-09-06T03:24:36.530Z,9.83
2022-09-06T03:27:05.189Z,9.73
2022-09-06T03:29:33.732Z,10.63
2022-09-06T03:32:02.333Z,11.33
2022-09-06T03:34:30.732Z,8.03
2022-09-06T03:37:00.511Z,12.73
2022-09-06T03:39:29.015Z,10.67
2022-09-06T03:41:57.540Z,9.47
2022-09-06T03:44:26.049Z,7.73
2022-09-06T03:46:54.515Z,8.67
2022-09-06T03:49:22.944Z,9.60
2022-09-06T03:51:51.410Z,9.20
2022-09-06T03:54:21.185Z,8.50
2022-09-06T03:56:49.720Z,12.67
2022-09-06T03:59:18.079Z,12.80
2022-09-06T04:01:46.541Z,11.17
2022-09-06T04:04:15.096Z,10.37
2022-09-06T04:06:43.578Z,10.33
2022-09-06T04:09:12.059Z,10.77
2022-09-06T04:11:45.044Z,9.23
2022-09-06T04:14:13.627Z,8.23
2022-09-06T04:16:42.050Z,9.20
2022-09-06T04:19:10.494Z,7.03
2022-09-06T04:21:38.967Z,13.07
2022-09-06T04:24:07.438Z,9.00
2022-09-06T04:26:35.941Z,9.23
2022-09-06T04:29:06.013Z,9.60
2022-09-06T04:31:34.706Z,12.40
2022-09-06T04:34:03.207Z,8.83
2022-09-06T04:36:31.802Z,9.20
2022-09-06T04:39:00.236Z,11.77
2022-09-06T04:41:28.765Z,8.77
2022-09-06T04:43:57.196Z,9.97
2022-09-06T04:46:29.823Z,7.40
2022-09-06T04:48:59.060Z,8.13
2022-09-06T04:51:27.495Z,8.97
2022-09-06T04:53:56.138Z,7.83
2022-09-06T04:56:27.151Z,13.33
2022-09-06T04:58:56.562Z,10.00
2022-09-06T05:01:26.607Z,9.40
2022-09-06T05:03:56.971Z,9.07
2022-09-06T05:06:26.780Z,8.37
2022-09-06T05:08:55.435Z,9.10
2022-09-06T05:11:24.300Z,9.87
2022-09-06T05:13:52.788Z,9.60
2022-09-06T05:16:21.266Z,12.87
2022-09-06T05:18:51.196Z,9.57
2022-09-06T05:21:19.714Z,10.43
2022-09-06T05:23:48.155Z,11.03
2022-09-06T05:26:16.807Z,9.83
2022-09-06T05:28:45.232Z,9.70
2022-09-06T05:31:24.851Z,9.70
2022-09-06T05:33:55.192Z,14.10
2022-09-06T05:36:24.249Z,9.37
2022-09-06T05:38:53.418Z,11.33
2022-09-06T05:41:22.217Z,12.67
2022-09-06T05:43:50.694Z,9.57
2022-09-06T05:46:19.235Z,11.50
2022-09-06T05:48:54.806Z,12.03
2022-09-06T05:51:23.258Z,10.50
2022-09-06T05:53:51.707Z,13.10
2022-09-06T05:56:20.183Z,16.43
2022-09-06T05:58:48.596Z,10.40
2022-09-06T06:01:18.973Z,11.63
2022-09-06T06:03:52.595Z,12.13
2022-09-06T06:06:23.656Z,14.27
2022-09-06T06:08:52.145Z,13.23
2022-09-06T06:11:21.020Z,12.50
2022-09-06T06:13:50.612Z,13.93
2022-09-06T06:16:20.710Z,11.70
2022-09-06T06:18:52.349Z,13.00
2022-09-06T06:21:24.991Z,15.73
2022-09-06T06:23:54.763Z,16.47
2022-09-06T06:26:24.037Z,16.33
2022-09-06T06:28:53.382Z,12.70
2022-09-06T06:31:22.610Z,15.33
2022-09-06T06:33:51.565Z,19.80
2022-09-06T06:36:22.541Z,15.00
2022-09-06T06:38:54.285Z,17.47
2022-09-06T06:41:24.873Z,16.77
2022-09-06T06:43:53.904Z,19.20
2022-09-06T06:46:23.496Z,11.97
2022-09-06T06:48:55.173Z,15.43
2022-09-06T06:51:25.651Z,15.97
2022-09-06T06:53:56.791Z,16.63
2022-09-06T06:56:27.296Z,18.23
2022-09-06T06:58:58.284Z,15.40
2022-09-06T07:01:28.586Z,14.20
2022-09-06T07:03:57.495Z,18.47
2022-09-06T07:09:19.100Z,14.03
2022-09-06T07:11:48.739Z,10.90
2022-09-06T07:14:17.474Z,10.73
2022-09-06T07:16:46.396Z,15.13
2022-09-06T07:22:05.364Z,15.47
2022-09-06T07:24:35.810Z,10.97
2022-09-06T07:29:52.786Z,15.80
2022-09-06T07:32:21.281Z,13.40
2022-09-06T07:34:49.735Z,9.50
2022-09-06T07:37:18.623Z,13.23
2022-09-06T07:39:48.502Z,12.90
2022-09-06T07:42:17.238Z,8.93
2022-09-06T07:44:45.671Z,14.87
2022-09-06T07:53:11.071Z,8.87
2022-09-06T07:55:42.956Z,11.53
2022-09-06T07:58:12.071Z,8.40
2022-09-06T08:00:41.260Z,7.40
2022-09-06T08:03:10.221Z,8.37
2022-09-06T08:11:38.811Z,8.68
2022-09-06T08:14:08.981Z,10.00
2022-09-06T08:16:38.518Z,7.15
2022-09-06T08:19:09.098Z,10.65
2022-09-06T08:21:37.557Z,7.07
2022-09-06T08:24:07.925Z,10.10
2022-09-06T08:26:40.379Z,12.55
2022-09-06T08:29:10.024Z,7.70
2022-09-06T08:31:40.384Z,7.50
2022-09-06T08:34:09.425Z,6.80
2022-09-06T08:36:37.942Z,10.18
2022-09-06T08:39:09.023Z,15.88
2022-09-06T08:41:49.365Z,7.93
2022-09-06T08:47:11.608Z,4.68
2022-09-06T08:49:42.800Z,5.50
2022-09-06T08:53:06.084Z,6.68
2022-09-06T08:55:38.375Z,6.60
2022-09-06T08:58:37.360Z,9.77
2022-09-06T09:01:12.609Z,9.35
2022-09-06T09:03:43.454Z,13.77
2022-09-06T09:06:12.383Z,6.82
2022-09-06T09:08:49.211Z,6.32
2022-09-06T09:11:21.168Z,7.75
2022-09-06T09:13:56.873Z,11.25
2022-09-06T09:16:25.439Z,7.55
2022-09-06T09:18:57.072Z,7.18
2022-09-06T09:21:30.727Z,7.65
2022-09-06T09:24:05.069Z,7.18
2022-09-06T09:26:40.681Z,5.35
2022-09-06T09:29:15.788Z,6.72
2022-09-06T09:31:53.343Z,11.05
2022-09-06T09:34:33.233Z,7.03
2022-09-06T09:40:13.991Z,7.13
2022-09-06T09:42:43.285Z,11.57
2022-09-06T09:45:26.423Z,5.57
2022-09-06T09:47:55.190Z,8.75
2022-09-06T09:50:27.083Z,9.98
2022-09-06T09:52:55.974Z,5.00
2022-09-06T09:55:26.355Z,5.65
2022-09-06T09:57:56.212Z,7.82
2022-09-06T10:00:40.654Z,6.25
2022-09-06T10:03:14.644Z,11.60
2022-09-06T10:05:44.104Z,8.98
2022-09-06T10:08:14.296Z,5.72
2022-09-06T10:10:48.216Z,8.40
2022-09-06T10:13:21.529Z,3.13
2022-09-06T10:15:53.572Z,4.57
2022-09-06T10:18:32.278Z,5.00
2022-09-06T10:21:03.746Z,4.90
2022-09-06T10:26:46.272Z,5.28
2022-09-06T10:29:15.581Z,5.57
2022-09-06T10:32:01.596Z,8.60
2022-09-06T10:34:54.268Z,3.22
2022-09-06T10:37:41.600Z,4.70
2022-09-06T10:40:12.425Z,3.30
2022-09-06T10:42:45.135Z,5.78
2022-09-06T10:45:39.120Z,5.00
2022-09-06T10:48:14.873Z,2.08
2022-09-06T10:50:50.546Z,3.90
2022-09-06T10:53:35.907Z,2.50
2022-09-06T10:56:08.661Z,5.18
2022-09-06T11:01:40.061Z,3.58
2022-09-06T11:04:19.973Z,3.30
2022-09-06T11:06:55.303Z,4.78
2022-09-06T11:09:30.530Z,3.67
2022-09-06T11:12:07.970Z,5.10
2022-09-06T11:14:37.460Z,3.55
2022-09-06T11:17:11.139Z,2.88
2022-09-06T11:19:46.835Z,3.28
2022-09-06T11:22:47.973Z,2.58
2022-09-06T11:25:43.011Z,3.28
2022-09-06T11:28:17.003Z,2.67
2022-09-06T11:30:48.506Z,2.83
2022-09-06T11:33:25.006Z,7.88
2022-09-06T11:36:15.439Z,3.40
2022-09-06T11:38:55.243Z,2.92
2022-09-06T11:41:29.253Z,4.60
2022-09-06T11:43:58.231Z,9.75
2022-09-06T11:47:07.531Z,2.85
2022-09-06T11:49:41.762Z,3.17
2022-09-06T11:52:55.093Z,2.75
2022-09-06T11:55:31.952Z,4.97
2022-09-06T11:58:03.303Z,11.40
2022-09-06T12:00:32.601Z,4.75
2022-09-06T12:06:16.046Z,7.25
2022-09-06T12:08:44.934Z,18.27
2022-09-06T12:11:34.323Z,3.75
2022-09-06T12:14:05.839Z,6.82
2022-09-06T12:17:26.285Z,5.80
2022-09-06T12:19:57.832Z,9.38
2022-09-06T12:23:03.300Z,9.75
2022-09-06T12:25:56.558Z,4.07
2022-09-06T12:28:35.368Z,6.13
2022-09-06T12:31:26.414Z,9.55
2022-09-06T12:33:55.707Z,8.90
2022-09-06T12:36:29.611Z,9.57
2022-09-06T12:39:00.173Z,5.50
2022-09-06T12:41:31.079Z,7.55
2022-09-06T12:44:02.843Z,7.85
2022-09-06T12:46:33.336Z,5.65
2022-09-06T12:49:08.432Z,7.18
2022-09-06T12:51:38.922Z,9.27
2022-09-06T12:54:19.614Z,6.35
2022-09-06T12:56:48.442Z,8.65
2022-09-06T12:59:20.941Z,6.80
2022-09-06T13:01:57.337Z,6.80
2022-09-06T13:04:35.419Z,10.15
2022-09-06T13:07:05.217Z,9.10
2022-09-06T13:09:35.048Z,6.97
2022-09-06T13:12:09.524Z,6.53
2022-09-06T13:14:39.312Z,5.78
2022-09-06T13:17:08.319Z,5.85
2022-09-06T13:19:38.348Z,9.55
2022-09-06T13:22:08.623Z,5.88
2022-09-06T13:24:47.328Z,11.63
2022-09-06T13:27:27.748Z,5.75
2022-09-06T13:29:58.957Z,7.72
2022-09-06T13:32:28.275Z,8.10
2022-09-06T13:35:00.153Z,8.02
2022-09-06T13:37:31.068Z,8.38
2022-09-06T13:39:59.890Z,8.68
2022-09-06T13:42:30.849Z,3.97
2022-09-06T13:45:16.325Z,5.43
2022-09-06T13:47:44.785Z,4.82
2022-09-06T13:50:13.421Z,5.57
2022-09-06T13:52:41.996Z,3.38
2022-09-06T13:55:14.115Z,7.47
2022-09-06T13:57:42.595Z,5.35
2022-09-06T14:00:13.816Z,5.07
2022-09-06T14:02:42.974Z,3.13
2022-09-06T14:05:11.904Z,3.00
2022-09-06T14:07:40.394Z,2.88
2022-09-06T14:10:09.563Z,4.50
2022-09-06T14:12:38.287Z,5.63
2022-09-06T14:15:07.924Z,2.92
2022-09-06T14:17:37.759Z,1.63
2022-09-06T14:20:07.040Z,1.67
2022-09-06T14:22:35.510Z,3.35
2022-09-06T14:25:04.304Z,4.07
2022-09-06T14:27:32.818Z,3.42
2022-09-06T14:30:01.328Z,2.08
2022-09-06T14:32:29.848Z,3.80
2022-09-06T14:35:00.521Z,4.55
2022-09-06T14:37:29.031Z,2.47
2022-09-06T14:39:57.766Z,3.05
2022-09-06T14:42:28.324Z,2.55
2022-09-06T14:44:56.778Z,1.65
2022-09-06T14:47:26.016Z,3.95
2022-09-06T14:49:54.516Z,4.05
2022-09-06T14:52:24.501Z,12.00
2022-09-06T14:54:53.220Z,4.85
2022-09-06T14:57:21.699Z,2.58
2022-09-06T14:59:50.210Z,7.95
2022-09-06T15:02:19.044Z,2.20
2022-09-06T15:04:47.548Z,6.32
2022-09-06T15:07:16.071Z,2.42
2022-09-06T15:09:46.111Z,3.95
2022-09-06T15:12:14.549Z,7.93
2022-09-06T15:14:43.286Z,3.33
2022-09-06T15:17:12.152Z,3.78
2022-09-06T15:19:40.594Z,7.88
2022-09-06T15:22:09.043Z,2.88
2022-09-06T15:24:37.660Z,2.75
2022-09-06T15:27:07.648Z,4.13
2022-09-06T15:29:36.367Z,6.57
2022-09-06T15:32:04.860Z,6.72
2022-09-06T15:34:33.753Z,5.57
2022-09-06T15:37:02.211Z,6.80
2022-09-06T15:39:30.832Z,4.10
2022-09-06T15:41:59.677Z,4.43
2022-09-06T15:44:29.492Z,6.65
2022-09-06T15:46:59.174Z,3.50
2022-09-06T15:49:31.635Z,1.88
2022-09-06T15:52:01.958Z,2.45
2022-09-06T15:54:48.665Z,2.67
2022-09-06T15:57:17.647Z,1.50
2022-09-06T15:59:47.585Z,4.68
2022-09-06T16:02:16.193Z,3.45
2022-09-06T16:04:44.756Z,3.47
2022-09-06T16:07:13.520Z,2.20
2022-09-06T16:09:43.536Z,7.55
2022-09-06T16:12:12.475Z,3.95
2022-09-06T16:14:40.942Z,2.28
2022-09-06T16:17:12.255Z,2.58
2022-09-06T16:19:40.840Z,2.03
2022-09-06T16:22:09.337Z,2.15
2022-09-06T16:24:40.251Z,4.20
2022-09-06T16:27:08.701Z,2.40
2022-09-06T16:29:38.317Z,2.17
2022-09-06T16:32:06.799Z,2.92
2022-09-06T16:34:37.823Z,3.25
2022-09-06T16:37:07.868Z,1.40
2022-09-06T16:39:36.938Z,7.72
2022-09-06T16:42:05.601Z,4.05
2022-09-06T16:44:34.047Z,5.22
2022-09-06T16:47:04.051Z,1.17
2022-09-06T16:49:32.547Z,4.82
2022-09-06T16:52:02.450Z,4.15
2022-09-06T16:54:30.908Z,2.80
2022-09-06T16:56:59.677Z,8.47
2022-09-06T16:59:28.548Z,5.00
2022-09-06T17:01:57.077Z,5.93
2022-09-06T17:04:25.586Z,3.97
2022-09-06T17:06:54.018Z,4.00
2022-09-06T17:09:23.849Z,5.80
2022-09-06T17:11:52.322Z,5.63
2022-09-06T17:14:20.742Z,4.73
2022-09-06T17:17:06.924Z,3.73
2022-09-06T17:19:37.506Z,6.37
2022-09-06T17:22:07.008Z,3.73
2022-09-06T17:24:37.111Z,4.33
2022-09-06T17:27:06.373Z,3.40
2022-09-06T17:29:34.955Z,7.20
2022-09-06T17:32:13.852Z,3.67
2022-09-06T17:34:42.449Z,3.33
2022-09-06T17:37:10.987Z,1.93
2022-09-06T17:39:41.076Z,2.80
2022-09-06T17:42:09.681Z,4.20
2022-09-06T17:44:38.160Z,2.90
2022-09-06T17:47:14.570Z,6.93
2022-09-06T17:49:43.600Z,4.13
2022-09-06T17:52:12.554Z,6.17
2022-09-06T17:54:42.528Z,5.33
2022-09-06T17:57:11.049Z,2.77
2022-09-06T17:59:39.683Z,4.37
2022-09-06T18:02:08.865Z,7.67
2022-09-06T18:04:37.410Z,4.50
2022-09-06T18:07:09.437Z,4.47
2022-09-06T18:09:37.930Z,6.17
2022-09-06T18:12:09.101Z,5.73
2022-09-06T18:14:42.452Z,7.27
2022-09-06T18:17:10.847Z,5.43
2022-09-06T18:19:39.265Z,5.70
2022-09-06T18:22:07.899Z,3.23
2022-09-06T18:24:36.352Z,3.50
2022-09-06T18:27:04.951Z,6.10
2022-09-06T18:29:34.770Z,3.43
2022-09-06T18:32:17.636Z,4.50
2022-09-06T18:34:46.055Z,3.70
2022-09-06T18:37:14.800Z,4.80
2022-09-06T18:39:43.347Z,8.23
2022-09-06T18:42:12.030Z,5.13
2022-09-06T18:44:42.186Z,6.60
2022-09-06T18:47:12.219Z,3.73
2022-09-06T18:49:43.925Z,8.57
2022-09-06T18:52:12.849Z,7.13
2022-09-06T18:54:44.015Z,5.20
2022-09-06T18:57:14.566Z,7.47
2022-09-06T18:59:44.516Z,5.77
2022-09-06T19:02:13.096Z,3.60
2022-09-06T19:04:41.670Z,5.10
2022-09-06T19:07:10.245Z,5.13
2022-09-06T19:09:38.817Z,2.63
2022-09-06T19:12:07.300Z,5.97
2022-09-06T19:14:35.711Z,4.60
2022-09-06T19:17:05.616Z,3.83
2022-09-06T19:19:34.066Z,5.80
2022-09-06T19:22:02.506Z,4.97
2022-09-06T19:24:31.059Z,8.63
2022-09-06T19:26:59.544Z,3.83
2022-09-06T19:29:28.543Z,5.00
2022-09-06T19:31:57.036Z,3.63
2022-09-06T19:34:27.201Z,4.93
2022-09-06T19:36:57.190Z,3.87
2022-09-06T19:39:32.258Z,7.10
2022-09-06T19:42:03.448Z,6.40
2022-09-06T19:44:32.595Z,25.20
2022-09-06T19:47:01.081Z,9.37
2022-09-06T19:49:31.636Z,8.77
2022-09-06T19:52:00.197Z,8.17
2022-09-06T19:54:28.656Z,6.73
2022-09-06T19:56:57.088Z,9.50
2022-09-06T19:59:25.650Z,8.87
2022-09-06T20:01:54.164Z,7.43
2022-09-06T20:04:23.138Z,7.40
2022-09-06T20:06:53.318Z,7.20
2022-09-06T20:09:24.704Z,7.10
2022-09-06T20:11:53.251Z,8.03
2022-09-06T20:14:21.810Z,11.13
2022-09-06T20:16:52.126Z,13.60
2022-09-06T20:19:20.835Z,12.23
2022-09-06T20:21:49.368Z,9.70
2022-09-06T20:24:19.813Z,7.23
2022-09-06T20:26:48.256Z,8.47
2022-09-06T20:29:16.699Z,7.83
2022-09-06T20:31:45.170Z,16.93
2022-09-06T20:34:18.379Z,13.63
2022-09-06T20:36:50.430Z,14.40
2022-09-06T20:39:20.733Z,8.70
2022-09-06T20:41:49.600Z,10.10
2022-09-06T20:44:18.083Z,12.17
2022-09-06T20:46:46.597Z,10.03
2022-09-06T20:49:15.750Z,9.50
2022-09-06T20:51:44.231Z,10.70
2022-09-06T20:54:13.930Z,13.10
2022-09-06T20:56:44.233Z,9.27
2022-09-06T20:59:14.627Z,8.60
2022-09-06T21:01:44.967Z,11.03
2022-09-06T21:04:16.502Z,14.27
2022-09-06T21:06:45.780Z,18.17
2022-09-06T21:09:15.451Z,9.63
2022-09-06T21:11:46.411Z,8.50
2022-09-06T21:14:14.923Z,9.57
2022-09-06T21:16:43.573Z,10.33
2022-09-06T21:19:13.672Z,11.13
2022-09-06T21:21:42.725Z,13.07
2022-09-06T21:24:12.194Z,9.13
2022-09-06T21:26:42.833Z,9.17
2022-09-06T21:29:12.699Z,7.23
2022-09-06T21:31:41.248Z,8.53
2022-09-06T21:34:16.897Z,7.43
2022-09-06T21:36:45.920Z,10.07
2022-09-06T21:39:14.720Z,8.63
2022-09-06T21:41:44.450Z,12.93
2022-09-06T21:44:14.593Z,8.97
2022-09-06T21:46:43.456Z,13.30
2022-09-06T21:49:13.875Z,7.80
2022-09-06T21:51:43.194Z,8.70
2022-09-06T21:54:11.787Z,8.07
2022-09-06T21:56:40.957Z,10.73
2022-09-06T21:59:10.865Z,11.37
2022-09-06T22:01:46.424Z,9.23
2022-09-06T22:04:15.273Z,9.53
2022-09-06T22:06:43.671Z,14.07
2022-09-06T22:09:13.571Z,8.93
2022-09-06T22:11:43.995Z,10.63
2022-09-06T22:14:15.431Z,8.03
2022-09-06T22:16:45.508Z,9.03
2022-09-06T22:19:14.318Z,8.37
2022-09-06T22:21:44.951Z,7.07
2022-09-06T22:24:14.252Z,9.17
2022-09-06T22:26:43.907Z,6.33
2022-09-06T22:29:15.002Z,8.87
2022-09-06T22:31:44.885Z,12.57
2022-09-06T22:34:13.359Z,9.37
2022-09-06T22:36:42.016Z,11.80
2022-09-06T22:39:10.779Z,20.63
2022-09-06T22:41:39.693Z,37.27
2022-09-06T22:44:08.332Z,10.50
2022-09-06T22:46:37.541Z,11.20
2022-09-06T22:49:08.162Z,8.77
2022-09-06T22:51:37.375Z,9.83
2022-09-06T22:54:06.102Z,10.63
2022-09-06T22:56:35.628Z,6.40
2022-09-06T22:59:04.602Z,6.13
2022-09-06T23:01:38.561Z,4.97
2022-09-06T23:04:09.444Z,6.57
2022-09-06T23:06:38.365Z,3.53
2022-09-06T23:09:06.971Z,3.83
2022-09-06T23:11:35.735Z,3.63
2022-09-06T23:14:04.911Z,3.23
2022-09-06T23:16:33.844Z,4.23
2022-09-06T23:19:02.337Z,10.70
2022-09-06T23:21:32.382Z,5.83
2022-09-06T23:24:00.906Z,4.73
2022-09-06T23:26:31.576Z,5.10
2022-09-06T23:29:00.344Z,4.30
2022-09-06T23:31:32.430Z,6.93
2022-09-06T23:34:02.636Z,3.90
2022-09-06T23:36:33.135Z,6.20
2022-09-06T23:39:02.489Z,5.50
2022-09-06T23:41:31.347Z,9.30
2022-09-06T23:44:00.545Z,7.97
2022-09-06T23:46:32.049Z,5.93
2022-09-06T23:49:00.918Z,8.73
2022-09-06T23:51:29.562Z,13.70
2022-09-06T23:53:59.623Z,8.00
2022-09-06T23:56:28.171Z,11.33
2022-09-06T23:58:56.612Z,7.73
